createdAt,value
2023-02-16T00:05:32.724Z,28.00
2023-02-16T00:08:34.574Z,26.20
2023-02-16T00:11:55.411Z,20.90
2023-02-16T00:14:57.789Z,27.00
2023-02-16T00:18:02.172Z,26.90
2023-02-16T00:21:04.223Z,27.90
2023-02-16T00:27:13.378Z,25.60
2023-02-16T00:30:18.148Z,25.40
2023-02-16T00:33:21.168Z,27.20
2023-02-16T00:36:23.331Z,27.70
2023-02-16T00:45:37.597Z,25.50
2023-02-16T00:48:39.419Z,25.80
2023-02-16T00:51:42.549Z,27.50
2023-02-16T00:54:44.384Z,27.20
2023-02-16T00:57:56.739Z,28.60
2023-02-16T01:01:05.842Z,27.30
2023-02-16T01:04:11.934Z,27.40
2023-02-16T01:07:36.564Z,26.80
2023-02-16T01:10:58.005Z,26.90
2023-02-16T01:13:59.952Z,27.40
2023-02-16T01:17:01.830Z,27.40
2023-02-16T01:20:13.347Z,27.20
2023-02-16T01:23:15.291Z,26.90
2023-02-16T01:26:19.396Z,26.30
2023-02-16T01:29:21.615Z,26.90
2023-02-16T01:32:24.832Z,26.10
2023-02-16T01:35:32.592Z,27.70
2023-02-16T01:38:34.531Z,27.40
2023-02-16T01:41:48.634Z,25.70
2023-02-16T01:45:01.228Z,25.20
2023-02-16T01:48:06.386Z,26.60
2023-02-16T01:51:18.265Z,26.30
2023-02-16T01:57:48.817Z,23.30
2023-02-16T02:00:51.640Z,24.10
2023-02-16T02:04:12.245Z,25.60
2023-02-16T02:07:23.267Z,25.20
2023-02-16T02:10:40.946Z,25.00
2023-02-16T02:13:51.930Z,25.80
2023-02-16T02:17:04.584Z,25.30
2023-02-16T02:20:48.988Z,24.80
2023-02-16T02:23:57.064Z,23.50
2023-02-16T02:27:24.316Z,25.40
2023-02-16T02:30:32.370Z,24.70
2023-02-16T02:33:59.367Z,23.20
2023-02-16T02:37:15.606Z,23.40
2023-02-16T02:40:36.158Z,24.10
2023-02-16T02:43:45.390Z,22.90
2023-02-16T02:46:48.035Z,23.40
2023-02-16T02:49:52.764Z,23.50
2023-02-16T02:52:57.304Z,25.00
2023-02-16T02:56:20.676Z,24.30
2023-02-16T02:59:46.292Z,22.70
2023-02-16T03:02:52.889Z,22.70
2023-02-16T03:05:56.694Z,23.70
2023-02-16T03:09:08.068Z,23.80
2023-02-16T03:12:30.781Z,24.40
2023-02-16T03:15:34.197Z,24.70
2023-02-16T03:18:56.944Z,23.50
2023-02-16T03:22:18.244Z,23.80
2023-02-16T03:25:42.006Z,24.50
2023-02-16T03:29:03.741Z,24.20
2023-02-16T03:32:06.139Z,25.60
2023-02-16T03:35:08.742Z,25.60
2023-02-16T03:38:10.664Z,24.70
2023-02-16T03:41:12.569Z,25.90
2023-02-16T03:44:15.117Z,25.60
2023-02-16T03:47:17.221Z,24.70
2023-02-16T03:50:19.273Z,24.50
2023-02-16T03:53:21.264Z,24.80
2023-02-16T03:56:23.204Z,25.40
2023-02-16T03:59:25.122Z,25.80
2023-02-16T04:02:28.096Z,24.90
2023-02-16T04:05:30.092Z,26.20
2023-02-16T04:08:32.006Z,25.50
2023-02-16T04:11:52.365Z,24.80
2023-02-16T04:14:54.176Z,25.20
2023-02-16T04:17:56.494Z,25.30
2023-02-16T04:20:58.340Z,27.20
2023-02-16T04:24:00.204Z,25.20
2023-02-16T04:27:01.991Z,26.70
2023-02-16T04:30:06.276Z,27.00
2023-02-16T04:33:08.119Z,25.60
2023-02-16T04:36:10.071Z,23.90
2023-02-16T04:39:11.992Z,25.60
2023-02-16T04:42:13.784Z,27.20
2023-02-16T04:45:15.754Z,27.00
2023-02-16T04:48:17.590Z,25.90
2023-02-16T04:51:19.467Z,25.30
2023-02-16T04:54:21.303Z,27.40
2023-02-16T04:57:24.376Z,26.10
2023-02-16T05:00:26.486Z,26.00
2023-02-16T05:03:28.371Z,26.80
2023-02-16T05:06:30.189Z,26.10
2023-02-16T05:09:31.971Z,25.30
2023-02-16T05:12:52.407Z,19.50
2023-02-16T05:15:54.475Z,26.80
2023-02-16T05:18:58.628Z,25.80
2023-02-16T05:22:00.719Z,26.10
2023-02-16T05:25:02.679Z,27.30
2023-02-16T05:28:05.127Z,25.40
2023-02-16T05:31:07.411Z,24.70
2023-02-16T05:34:09.677Z,25.30
2023-02-16T05:37:13.109Z,25.60
2023-02-16T05:40:14.949Z,26.50
2023-02-16T05:43:16.879Z,26.20
2023-02-16T05:46:19.790Z,26.30
2023-02-16T05:49:21.771Z,27.30
2023-02-16T05:52:23.683Z,27.20
2023-02-16T05:55:25.895Z,28.10
2023-02-16T05:58:27.697Z,27.40
2023-02-16T06:01:29.521Z,27.50
2023-02-16T06:04:31.974Z,26.30
2023-02-16T06:07:33.796Z,27.60
2023-02-16T06:10:35.752Z,26.90
2023-02-16T06:13:37.590Z,28.30
2023-02-16T06:16:42.044Z,28.70
2023-02-16T06:19:43.874Z,27.90
2023-02-16T06:22:45.763Z,27.40
2023-02-16T06:25:50.748Z,25.90
2023-02-16T06:28:53.266Z,27.10
2023-02-16T06:31:55.388Z,25.80
2023-02-16T06:34:57.324Z,27.60
2023-02-16T06:37:59.265Z,22.30
2023-02-16T06:41:01.605Z,27.90
2023-02-16T06:44:09.144Z,27.50
2023-02-16T06:47:11.232Z,28.40
2023-02-16T06:50:13.851Z,26.40
2023-02-16T06:53:15.674Z,26.80
2023-02-16T06:56:17.563Z,27.60
2023-02-16T06:59:19.583Z,26.30
2023-02-16T07:02:21.619Z,27.10
2023-02-16T07:05:24.329Z,26.40
2023-02-16T07:08:27.393Z,26.40
2023-02-16T07:11:29.404Z,25.80
2023-02-16T07:14:31.527Z,26.40
2023-02-16T07:20:35.366Z,22.50
2023-02-16T07:23:37.301Z,25.60
2023-02-16T07:26:39.140Z,25.50
2023-02-16T07:29:41.037Z,25.20
2023-02-16T07:32:43.243Z,25.60
2023-02-16T07:38:46.800Z,23.50
2023-02-16T07:41:48.715Z,19.30
2023-02-16T07:44:52.720Z,24.20
2023-02-16T07:47:54.576Z,24.80
2023-02-16T07:50:56.843Z,24.30
2023-02-16T07:57:01.232Z,24.80
2023-02-16T08:00:03.933Z,26.10
2023-02-16T08:03:13.334Z,25.70
2023-02-16T08:06:16.313Z,25.70
2023-02-16T08:09:18.316Z,25.00
2023-02-16T08:12:21.271Z,24.60
2023-02-16T08:15:23.369Z,24.50
2023-02-16T08:21:31.287Z,25.60
2023-02-16T08:24:34.090Z,24.60
2023-02-16T08:27:36.197Z,24.60
2023-02-16T08:30:38.112Z,24.10
2023-02-16T08:33:40.831Z,25.30
2023-02-16T08:36:45.330Z,24.40
2023-02-16T08:39:48.494Z,24.20
2023-02-16T08:42:50.683Z,25.60
2023-02-16T08:45:52.846Z,25.00
2023-02-16T08:52:01.431Z,21.10
2023-02-16T08:55:04.054Z,23.20
2023-02-16T08:58:06.325Z,24.20
2023-02-16T09:04:11.164Z,22.50
2023-02-16T09:07:13.180Z,23.20
2023-02-16T09:10:15.204Z,22.90
2023-02-16T09:13:17.157Z,23.70
2023-02-16T09:16:21.910Z,24.00
2023-02-16T09:19:24.184Z,23.70
2023-02-16T09:22:27.762Z,23.40
2023-02-16T09:25:29.794Z,22.80
2023-02-16T09:28:32.295Z,23.80
2023-02-16T09:31:36.550Z,23.90
2023-02-16T09:34:38.472Z,24.30
2023-02-16T09:37:40.485Z,24.80
2023-02-16T09:40:44.832Z,23.00
2023-02-16T09:44:28.565Z,24.30
2023-02-16T09:47:41.589Z,23.00
2023-02-16T09:50:55.036Z,23.50
2023-02-16T09:54:10.394Z,24.70
2023-02-16T09:57:15.384Z,24.70
2023-02-16T10:00:32.392Z,24.00
2023-02-16T10:03:54.549Z,22.40
2023-02-16T10:10:04.498Z,22.90
2023-02-16T10:13:16.448Z,22.30
2023-02-16T10:16:27.725Z,22.90
2023-02-16T10:19:40.750Z,22.40
2023-02-16T10:23:00.752Z,22.20
2023-02-16T10:26:32.663Z,21.90
2023-02-16T10:29:35.050Z,19.70
2023-02-16T10:35:56.948Z,20.10
2023-02-16T10:39:28.181Z,20.70
2023-02-16T10:43:22.287Z,20.60
2023-02-16T10:46:30.342Z,22.30
2023-02-16T10:49:35.112Z,22.50
2023-02-16T10:52:41.363Z,20.90
2023-02-16T10:55:43.692Z,21.50
2023-02-16T11:04:55.440Z,19.10
2023-02-16T11:08:02.278Z,21.70
2023-02-16T11:11:09.304Z,20.70
2023-02-16T11:14:29.749Z,26.00
2023-02-16T11:17:46.658Z,22.10
2023-02-16T11:20:54.339Z,21.70
2023-02-16T11:24:01.602Z,22.30
2023-02-16T11:27:19.454Z,23.00
2023-02-16T11:30:35.301Z,21.10
2023-02-16T11:33:38.287Z,22.60
2023-02-16T11:36:45.620Z,21.80
2023-02-16T11:39:54.612Z,22.10
2023-02-16T11:42:59.640Z,22.30
2023-02-16T11:46:07.514Z,21.80
2023-02-16T11:49:33.354Z,20.40
2023-02-16T11:52:35.774Z,20.80
2023-02-16T11:55:44.271Z,20.00
2023-02-16T11:59:13.976Z,20.90
2023-02-16T12:16:23.736Z,21.00
2023-02-16T12:19:43.416Z,20.00
2023-02-16T12:22:54.168Z,21.20
2023-02-16T12:26:03.052Z,20.30
2023-02-16T12:29:30.996Z,21.20
2023-02-16T12:32:44.324Z,20.60
2023-02-16T12:35:52.378Z,21.40
2023-02-16T12:39:05.405Z,23.00
2023-02-16T12:42:45.441Z,22.30
2023-02-16T12:45:49.009Z,21.30
2023-02-16T12:49:00.491Z,21.60
2023-02-16T12:52:21.654Z,20.80
2023-02-16T12:55:32.248Z,22.30
2023-02-16T12:58:44.661Z,21.70
2023-02-16T13:08:03.033Z,20.80
2023-02-16T13:11:11.357Z,21.80
2023-02-16T13:14:19.680Z,21.80
2023-02-16T13:17:32.520Z,21.70
2023-02-16T13:20:37.556Z,21.50
2023-02-16T13:24:23.909Z,20.30
2023-02-16T13:28:00.641Z,20.40
2023-02-16T13:31:34.063Z,20.20
2023-02-16T13:35:03.205Z,20.30
2023-02-16T13:38:32.566Z,19.50
2023-02-16T13:41:54.899Z,19.60
2023-02-16T13:45:00.576Z,19.40
2023-02-16T13:48:14.274Z,21.90
2023-02-16T13:51:24.683Z,22.20
2023-02-16T13:54:43.128Z,24.00
2023-02-16T13:57:50.782Z,24.50
2023-02-16T14:00:54.133Z,25.60
2023-02-16T14:03:56.283Z,25.20
2023-02-16T14:07:06.969Z,22.70
2023-02-16T14:10:13.789Z,22.50
2023-02-16T14:13:16.217Z,23.20
2023-02-16T14:16:18.031Z,21.80
2023-02-16T14:19:25.988Z,21.90
2023-02-16T14:22:37.285Z,22.90
2023-02-16T14:25:39.953Z,23.40
2023-02-16T14:29:11.837Z,24.60
2023-02-16T14:32:30.765Z,26.30
2023-02-16T14:35:38.264Z,27.90
2023-02-16T14:38:40.715Z,27.20
2023-02-16T14:41:42.898Z,27.70
2023-02-16T14:45:09.507Z,25.70
2023-02-16T14:48:22.934Z,27.50
2023-02-16T14:51:43.816Z,32.00
2023-02-16T14:55:23.528Z,24.90
2023-02-16T14:58:29.408Z,25.00
2023-02-16T15:01:42.947Z,25.70
2023-02-16T15:04:45.569Z,25.20
2023-02-16T15:07:51.079Z,28.20
2023-02-16T15:10:57.793Z,25.40
2023-02-16T15:14:10.480Z,26.10
2023-02-16T15:17:29.852Z,27.10
2023-02-16T15:20:37.955Z,27.40
2023-02-16T15:23:48.546Z,27.90
2023-02-16T15:26:56.268Z,27.50
2023-02-16T15:30:06.232Z,29.10
2023-02-16T15:33:29.953Z,30.20
2023-02-16T15:36:37.800Z,31.00
2023-02-16T15:39:51.907Z,32.90
2023-02-16T15:43:39.329Z,30.70
2023-02-16T15:46:43.778Z,29.60
2023-02-16T15:49:46.076Z,29.60
2023-02-16T15:52:48.020Z,29.30
2023-02-16T15:55:50.950Z,28.80
2023-02-16T15:58:53.740Z,28.90
2023-02-16T16:02:33.188Z,28.30
2023-02-16T16:05:36.271Z,28.50
2023-02-16T16:08:38.549Z,27.70
2023-02-16T16:14:53.739Z,28.00
2023-02-16T16:17:59.230Z,28.70
2023-02-16T16:21:02.400Z,28.70
2023-02-16T16:24:11.650Z,28.90
2023-02-16T16:27:14.683Z,30.00
2023-02-16T16:30:20.369Z,28.60
2023-02-16T16:33:22.512Z,28.10
2023-02-16T16:36:33.925Z,27.50
2023-02-16T16:39:39.138Z,28.20
2023-02-16T16:43:02.429Z,28.90
2023-02-16T16:46:25.528Z,29.90
2023-02-16T16:49:28.122Z,30.10
2023-02-16T16:52:48.885Z,31.40
2023-02-16T16:55:51.290Z,32.20
2023-02-16T16:58:56.321Z,33.90
2023-02-16T17:01:58.454Z,33.40
2023-02-16T17:05:00.882Z,31.90
2023-02-16T17:08:03.272Z,37.50
2023-02-16T17:14:14.085Z,33.70
2023-02-16T17:17:16.475Z,35.20
2023-02-16T17:23:22.238Z,35.10
2023-02-16T17:26:24.516Z,35.90
2023-02-16T17:29:26.807Z,35.10
2023-02-16T17:35:31.176Z,35.20
2023-02-16T17:38:33.371Z,36.80
2023-02-16T17:41:35.342Z,37.30
2023-02-16T17:44:37.177Z,37.50
2023-02-16T17:47:39.057Z,38.90
2023-02-16T17:50:41.104Z,40.90
2023-02-16T17:53:43.873Z,42.00
2023-02-16T17:56:46.583Z,42.60
2023-02-16T17:59:48.938Z,45.20
2023-02-16T18:05:53.262Z,45.70
2023-02-16T18:08:55.228Z,45.20
2023-02-16T18:11:57.386Z,46.60
2023-02-16T18:14:59.255Z,45.20
2023-02-16T18:18:01.268Z,46.00
2023-02-16T18:21:03.437Z,49.60
2023-02-16T18:24:05.520Z,48.50
2023-02-16T18:27:07.552Z,44.00
2023-02-16T18:30:12.908Z,45.70
2023-02-16T18:33:15.406Z,46.20
2023-02-16T18:36:17.312Z,45.00
2023-02-16T18:39:19.148Z,44.20
2023-02-16T18:42:21.122Z,46.20
2023-02-16T18:45:23.871Z,46.50
2023-02-16T18:48:25.835Z,45.50
2023-02-16T18:51:31.209Z,47.70
2023-02-16T18:54:33.841Z,44.80
2023-02-16T18:57:35.836Z,48.70
2023-02-16T19:00:37.987Z,49.10
2023-02-16T19:06:43.710Z,48.90
2023-02-16T19:09:46.396Z,54.70
2023-02-16T19:12:49.052Z,47.60
2023-02-16T19:15:51.497Z,47.30
2023-02-16T19:18:54.405Z,45.50
2023-02-16T19:21:56.761Z,47.60
2023-02-16T19:24:59.694Z,46.20
2023-02-16T19:28:02.436Z,46.30
2023-02-16T19:31:14.894Z,42.90
2023-02-16T19:34:17.549Z,45.50
2023-02-16T19:37:24.195Z,43.70
2023-02-16T19:40:26.677Z,45.40
2023-02-16T19:43:29.707Z,45.40
2023-02-16T19:46:34.680Z,46.40
2023-02-16T19:49:37.787Z,45.80
2023-02-16T19:52:41.116Z,48.80
2023-02-16T19:55:45.797Z,51.90
2023-02-16T19:58:49.504Z,46.00
2023-02-16T20:01:52.689Z,44.80
2023-02-16T20:04:55.914Z,46.30
2023-02-16T20:07:58.629Z,48.30
2023-02-16T20:11:04.177Z,46.40
2023-02-16T20:14:07.553Z,47.20
2023-02-16T20:17:10.456Z,46.20
2023-02-16T20:20:13.942Z,46.90
2023-02-16T20:23:16.978Z,44.60
2023-02-16T20:26:24.225Z,43.40
2023-02-16T20:29:27.234Z,43.80
2023-02-16T20:32:30.042Z,46.20
2023-02-16T20:35:35.951Z,45.20
2023-02-16T20:38:38.852Z,45.90
2023-02-16T20:41:41.791Z,44.10
2023-02-16T20:44:44.481Z,43.10
2023-02-16T20:47:46.871Z,43.90
2023-02-16T20:50:57.167Z,43.90
2023-02-16T20:54:01.464Z,44.50
2023-02-16T20:57:05.149Z,43.60
2023-02-16T21:00:13.564Z,45.40
2023-02-16T21:03:15.954Z,45.10
2023-02-16T21:06:18.784Z,44.50
2023-02-16T21:09:20.716Z,43.20
2023-02-16T21:12:22.681Z,44.40
2023-02-16T21:15:24.517Z,45.10
2023-02-16T21:18:26.387Z,45.50
2023-02-16T21:21:28.312Z,48.20
2023-02-16T21:24:30.166Z,46.10
2023-02-16T21:27:31.990Z,44.50
2023-02-16T21:30:33.934Z,43.50
2023-02-16T21:33:36.216Z,43.90
2023-02-16T21:39:58.598Z,41.70
2023-02-16T21:43:00.475Z,44.30
2023-02-16T21:46:02.473Z,44.00
2023-02-16T21:49:06.812Z,42.10
2023-02-16T21:52:08.733Z,43.10
2023-02-16T21:55:30.773Z,44.60
2023-02-16T21:58:33.726Z,44.20
2023-02-16T22:01:39.047Z,43.40
2023-02-16T22:04:42.092Z,42.80
2023-02-16T22:07:43.989Z,41.60
2023-02-16T22:10:45.797Z,42.50
2023-02-16T22:13:53.063Z,40.80
2023-02-16T22:16:55.025Z,48.10
2023-02-16T22:19:56.787Z,42.90
2023-02-16T22:22:58.650Z,40.70
2023-02-16T22:26:01.032Z,41.40
2023-02-16T22:29:04.908Z,39.50
2023-02-16T22:32:06.897Z,40.20
2023-02-16T22:35:08.785Z,40.10
2023-02-16T22:38:10.587Z,39.40
2023-02-16T22:41:12.523Z,39.90
2023-02-16T22:44:15.052Z,41.40
2023-02-16T22:47:17.063Z,37.20
2023-02-16T22:50:18.989Z,40.40
2023-02-16T22:53:20.812Z,39.60
2023-02-16T22:56:22.610Z,41.50
2023-02-16T22:59:24.476Z,40.30
2023-02-16T23:02:26.324Z,42.30
2023-02-16T23:05:29.802Z,40.90
2023-02-16T23:08:31.625Z,41.60
2023-02-16T23:11:35.061Z,39.00
2023-02-16T23:14:37.849Z,39.70
2023-02-16T23:17:39.662Z,40.70
2023-02-16T23:20:41.490Z,41.40
2023-02-16T23:23:44.236Z,40.80
2023-02-16T23:26:46.694Z,42.40
2023-02-16T23:29:48.591Z,41.50
2023-02-16T23:32:50.785Z,41.50
2023-02-16T23:38:59.469Z,37.00
2023-02-16T23:42:01.285Z,38.80
2023-02-16T23:45:03.807Z,40.00
2023-02-16T23:48:05.684Z,40.40
2023-02-16T23:51:07.555Z,39.80
2023-02-16T23:54:10.799Z,40.60
2023-02-16T23:57:12.651Z,40.00
